createdAt,value
2019-04-05T18:12:08.797Z,50.43
2019-04-05T18:14:41.229Z,50.05
2019-04-05T18:17:12.818Z,50.34
2019-04-05T18:19:44.454Z,50.51
2019-04-05T18:22:16.007Z,50.64
2019-04-05T18:24:47.531Z,50.91
2019-04-05T18:27:19.176Z,51.02
2019-04-05T18:29:50.918Z,51.12
2019-04-05T18:32:22.588Z,51.39
2019-04-05T18:34:54.360Z,51.59
2019-04-05T18:37:26.092Z,51.71
2019-04-05T18:39:57.722Z,51.87
2019-04-05T18:42:29.416Z,51.93
2019-04-05T18:45:00.903Z,51.94
2019-04-05T18:47:34.718Z,52.32
2019-04-05T18:50:07.555Z,52.27
2019-04-05T18:52:39.414Z,52.42
2019-04-05T18:55:10.942Z,52.43
2019-04-05T18:57:42.608Z,52.55
2019-04-05T19:00:14.155Z,52.75
2019-04-05T19:02:45.861Z,52.99
2019-04-05T19:05:17.644Z,53.48
2019-04-05T19:07:50.164Z,53.52
2019-04-05T19:10:21.620Z,53.63
2019-04-05T19:12:53.403Z,53.77
2019-04-05T19:15:25.133Z,53.77
2019-04-05T19:17:56.807Z,53.86
2019-04-05T19:20:28.406Z,54.11
2019-04-05T19:22:59.881Z,54.01
2019-04-05T19:25:31.528Z,54.04
2019-04-05T19:28:03.018Z,54.19
2019-04-05T19:48:30.626Z,53.68
2019-04-05T19:51:48.541Z,53.62
2019-04-05T19:54:27.664Z,53.26
2019-04-05T19:56:59.489Z,53.63
2019-04-05T19:59:31.587Z,53.65
2019-04-05T20:02:03.500Z,53.70
2019-04-05T20:04:35.433Z,53.75
2019-04-05T20:07:07.412Z,53.54
2019-04-05T20:09:39.525Z,53.88
2019-04-05T20:12:12.895Z,53.98
2019-04-05T20:14:44.901Z,53.99
2019-04-05T20:17:16.854Z,53.96
2019-04-05T20:19:48.658Z,54.08
2019-04-05T20:22:20.347Z,54.14
2019-04-05T20:24:52.163Z,54.17
2019-04-05T20:27:24.064Z,54.17
2019-04-05T20:29:55.830Z,54.40
2019-04-05T20:32:27.731Z,54.23
2019-04-05T20:35:00.930Z,54.38
2019-04-05T20:37:32.553Z,54.38
2019-04-05T20:40:08.678Z,54.21
2019-04-05T20:42:40.269Z,54.04
2019-04-05T20:45:12.909Z,54.01
2019-04-05T20:47:44.451Z,54.08
2019-04-05T20:50:16.074Z,54.28
2019-04-05T20:52:47.793Z,54.08
2019-04-05T20:55:19.508Z,54.18
2019-04-05T20:57:50.936Z,53.99
2019-04-05T21:00:22.415Z,54.18
2019-04-05T21:02:53.933Z,54.25
2019-04-05T21:05:25.880Z,54.13
2019-04-05T21:07:57.383Z,54.19
2019-04-05T21:10:29.158Z,54.26
2019-04-05T21:13:00.860Z,54.35
2019-04-05T21:15:32.842Z,54.26
2019-04-05T21:18:04.376Z,54.44
2019-04-05T21:20:36.066Z,54.59
2019-04-05T21:23:07.823Z,54.33
2019-04-05T21:25:39.327Z,54.42
2019-04-05T21:28:10.929Z,54.30
2019-04-05T21:30:42.521Z,54.37
2019-04-05T21:33:14.107Z,54.32
2019-04-05T21:35:46.275Z,54.51
2019-04-05T21:38:18.404Z,54.43
2019-04-05T21:40:49.958Z,54.42
2019-04-05T21:43:21.556Z,54.50
2019-04-05T21:45:53.324Z,54.75
2019-04-05T21:48:24.966Z,54.95
2019-04-05T21:50:56.592Z,55.14
2019-04-05T21:53:28.124Z,55.18
2019-04-05T21:55:59.708Z,55.32
2019-04-05T21:58:31.519Z,55.39
2019-04-05T22:01:07.337Z,55.66
2019-04-05T22:03:40.870Z,55.69
2019-04-05T22:06:12.594Z,55.77
2019-04-05T22:08:44.191Z,56.02
2019-04-05T22:11:15.673Z,56.24
2019-04-05T22:13:47.388Z,56.33
2019-04-05T22:16:19.074Z,56.55
2019-04-05T22:18:50.639Z,56.63
2019-04-05T22:21:22.295Z,56.91
2019-04-05T22:23:53.897Z,57.01
2019-04-05T22:26:25.434Z,57.12
2019-04-05T22:28:56.991Z,57.22
2019-04-05T22:31:29.547Z,57.45
2019-04-05T22:34:01.250Z,57.77
2019-04-05T22:36:32.726Z,57.86
2019-04-05T22:39:05.522Z,57.82
2019-04-05T22:41:37.976Z,58.14
2019-04-05T22:44:09.796Z,58.30
2019-04-05T22:46:41.449Z,58.52
2019-04-05T22:49:14.259Z,58.58
2019-04-05T22:51:46.070Z,58.84
2019-04-05T22:54:17.583Z,58.83
2019-04-05T22:56:49.252Z,58.94
2019-04-05T22:59:20.907Z,59.15
2019-04-05T23:01:52.568Z,59.29
2019-04-05T23:04:24.181Z,59.43
2019-04-05T23:06:55.906Z,59.68
2019-04-05T23:09:27.480Z,59.68
2019-04-05T23:11:59.167Z,59.75
2019-04-05T23:14:30.689Z,59.85
2019-04-05T23:17:02.568Z,59.93
2019-04-05T23:19:35.268Z,60.03
2019-04-05T23:22:06.843Z,60.09
2019-04-05T23:24:38.513Z,60.27
2019-04-05T23:27:10.220Z,60.21
2019-04-05T23:29:41.833Z,60.41
2019-04-05T23:32:13.632Z,60.48
2019-04-05T23:34:45.238Z,60.46
2019-04-05T23:37:17.027Z,60.65
2019-04-05T23:39:48.714Z,60.72
2019-04-05T23:42:20.305Z,60.66
2019-04-05T23:44:51.819Z,60.81
2019-04-05T23:47:24.694Z,60.89
2019-04-05T23:49:56.790Z,60.88
2019-04-05T23:52:28.369Z,60.95
2019-04-05T23:55:33.415Z,60.95
2019-04-05T23:58:02.161Z,61.05
